Time;durP1;ratioP1;P1;durP2;ratioP2;P2;SDS_P1;SDS_P2;PMS_P1;PMS_P2;Temp;Humidity;BMP_temperature;BMP_pressure;BME280_temperature;BME280_humidity;BME280_pressure;Samples;Min_cycle;Max_cycle;Signal;HPM_P1;HPM_P2
2021/08/26 00:07:54;;;;;;;10.02;7.55;;;;;;;19.52;49.27;95234.41;5030509;28;20044;-74
2021/08/26 00:10:23;;;;;;;8.18;7.38;;;;;;;19.59;49.24;95240.75;5031852;28;20074;-74
2021/08/26 00:12:50;;;;;;;9.75;7.97;;;;;;;19.68;49.37;95233.19;5030151;28;20033;-74
2021/08/26 00:15:15;;;;;;;10.20;7.45;;;;;;;19.65;49.16;95216.94;5029563;28;20061;-74
2021/08/26 00:17:41;;;;;;;9.98;8.15;;;;;;;19.66;49.04;95213.91;5029982;28;20563;-73
2021/08/26 00:20:07;;;;;;;10.75;8.60;;;;;;;19.55;49.04;95202.13;5030138;28;20579;-73
2021/08/26 00:22:33;;;;;;;11.23;8.40;;;;;;;19.48;49.17;95201.97;5029452;28;20033;-73
2021/08/26 00:24:59;;;;;;;11.20;9.02;;;;;;;19.28;50.10;95187.75;5031883;28;20633;-74
2021/08/26 00:27:24;;;;;;;10.00;7.95;;;;;;;19.23;49.80;95191.53;5030005;28;20034;-74
2021/08/26 00:29:50;;;;;;;10.65;9.55;;;;;;;19.10;50.27;95186.66;5028686;28;20556;-74
2021/08/26 00:32:15;;;;;;;10.75;9.63;;;;;;;19.09;50.22;95191.28;5030073;28;20066;-73
2021/08/26 00:34:41;;;;;;;13.45;8.73;;;;;;;19.10;50.70;95205.53;5028390;28;20108;-73
2021/08/26 00:37:06;;;;;;;10.55;9.45;;;;;;;18.98;50.92;95192.97;5031367;28;20026;-73
2021/08/26 00:39:31;;;;;;;9.98;9.18;;;;;;;18.92;51.19;95199.78;5044699;28;20049;-74
2021/08/26 00:41:57;;;;;;;11.02;9.85;;;;;;;18.90;51.24;95193.97;5044823;28;20033;-73
2021/08/26 00:44:22;;;;;;;10.68;9.55;;;;;;;18.95;51.46;95207.19;5027394;28;20053;-73
2021/08/26 00:46:48;;;;;;;14.07;10.20;;;;;;;18.86;51.63;95191.22;5029214;28;20061;-74
2021/08/26 00:49:14;;;;;;;13.68;10.82;;;;;;;18.91;51.62;95195.53;5030220;28;20079;-74
2021/08/26 00:51:40;;;;;;;19.52;13.48;;;;;;;18.85;51.90;95188.88;5044612;28;20044;-74
2021/08/26 00:54:07;;;;;;;13.23;10.90;;;;;;;18.76;52.31;95181.00;5028256;28;20467;-73
2021/08/26 00:56:32;;;;;;;15.35;11.52;;;;;;;18.81;52.42;95193.41;5029545;28;20033;-74
2021/08/26 00:59:00;;;;;;;12.00;10.85;;;;;;;18.76;52.64;95174.84;5028934;28;20045;-74
2021/08/26 01:01:34;;;;;;;12.68;11.45;;;;;;;18.71;52.86;95173.19;5028991;28;20064;-74
2021/08/26 01:04:13;;;;;;;12.25;10.90;;;;;;;18.73;53.40;95164.75;5030097;28;20029;-74
2021/08/26 01:06:52;;;;;;;11.75;10.60;;;;;;;18.74;53.42;95150.94;5028966;28;20057;-73
2021/08/26 01:09:20;;;;;;;16.02;11.27;;;;;;;18.82;53.46;95159.94;5027994;28;20061;-73
2021/08/26 01:11:48;;;;;;;12.20;10.63;;;;;;;18.92;53.45;95159.34;5028878;28;20113;-74
2021/08/26 01:14:15;;;;;;;11.68;10.52;;;;;;;19.07;53.46;95163.88;5027099;28;20041;-74
2021/08/26 01:16:41;;;;;;;13.48;10.77;;;;;;;19.10;53.12;95144.31;5027310;28;20387;-73
2021/08/26 01:19:07;;;;;;;11.23;10.13;;;;;;;19.24;53.05;95149.16;5029338;28;20034;-73
2021/08/26 01:21:33;;;;;;;12.98;10.07;;;;;;;19.39;52.76;95150.94;5027019;28;20434;-73
2021/08/26 01:24:01;;;;;;;11.07;9.98;;;;;;;19.42;52.85;95144.06;5044054;28;20049;-73
2021/08/26 01:26:36;;;;;;;11.63;10.23;;;;;;;19.63;52.38;95152.53;5043976;28;20053;-73
2021/08/26 01:29:04;;;;;;;10.85;9.55;;;;;;;19.70;52.17;95143.78;5028377;28;20586;-73
2021/08/26 01:31:30;;;;;;;9.50;8.60;;;;;;;19.78;52.25;95150.06;5028561;28;20475;-73
2021/08/26 01:33:56;;;;;;;12.52;9.82;;;;;;;19.84;52.10;95143.22;5030656;28;20075;-74
2021/08/26 01:36:30;;;;;;;10.00;8.65;;;;;;;19.97;51.76;95152.69;5028601;28;20102;-74
2021/08/26 01:39:07;;;;;;;10.23;9.23;;;;;;;19.96;51.81;95154.59;5028669;28;20487;-74
2021/08/26 01:41:52;;;;;;;9.75;8.85;;;;;;;20.07;51.59;95149.38;5027620;28;20046;-73
2021/08/26 01:44:27;;;;;;;9.65;8.65;;;;;;;20.08;51.38;95134.72;5043201;28;20041;-73
2021/08/26 01:47:04;;;;;;;10.43;9.32;;;;;;;20.19;51.29;95145.66;5043986;28;20048;-74
2021/08/26 01:49:29;;;;;;;9.55;8.65;;;;;;;20.17;50.95;95126.34;5028776;28;20053;-74
2021/08/26 01:51:55;;;;;;;9.57;7.75;;;;;;;20.21;50.77;95129.84;5029473;28;20423;-74
2021/08/26 01:54:20;;;;;;;9.20;8.40;;;;;;;20.27;51.00;95141.94;5027115;28;20049;-73
2021/08/26 01:56:46;;;;;;;9.55;8.48;;;;;;;20.29;50.61;95131.53;5028232;28;20102;-74
2021/08/26 01:59:11;;;;;;;9.93;8.98;;;;;;;20.32;50.60;95130.81;5028519;28;20144;-74
2021/08/26 02:01:37;;;;;;;14.00;8.82;;;;;;;20.40;50.47;95151.34;5044353;28;20105;-73
2021/08/26 02:04:03;;;;;;;9.10;8.20;;;;;;;20.42;50.35;95146.38;5029830;28;20398;-74
2021/08/26 02:06:28;;;;;;;10.68;8.57;;;;;;;20.43;50.30;95142.50;5028350;28;20120;-74
2021/08/26 02:08:53;;;;;;;8.80;7.53;;;;;;;20.45;50.35;95132.09;5028072;28;20567;-74
2021/08/26 02:11:19;;;;;;;12.57;8.90;;;;;;;20.46;50.17;95133.69;5028247;28;20053;-74
2021/08/26 02:13:44;;;;;;;8.85;8.05;;;;;;;20.50;50.29;95141.84;5043092;28;20041;-74
2021/08/26 02:16:11;;;;;;;9.75;8.45;;;;;;;20.49;50.35;95140.31;5044926;28;20113;-73
2021/08/26 02:18:36;;;;;;;8.50;7.70;;;;;;;20.39;50.18;95127.41;5028337;28;20037;-73
2021/08/26 02:21:02;;;;;;;9.32;8.43;;;;;;;20.39;50.21;95132.81;5028406;28;20402;-73
2021/08/26 02:23:27;;;;;;;10.18;8.50;;;;;;;20.37;50.37;95125.06;5043630;28;20439;-73
2021/08/26 02:25:52;;;;;;;9.52;8.63;;;;;;;20.37;50.42;95132.38;5027886;28;20029;-74
2021/08/26 02:28:18;;;;;;;9.27;8.30;;;;;;;20.38;50.12;95123.16;5029841;28;20041;-73
2021/08/26 02:30:43;;;;;;;9.93;8.95;;;;;;;20.37;50.29;95122.38;5027870;28;20040;-74
2021/08/26 02:33:08;;;;;;;8.65;7.82;;;;;;;20.37;50.38;95116.97;5029080;28;20116;-74
2021/08/26 02:35:34;;;;;;;9.05;8.15;;;;;;;20.45;50.42;95123.22;5046607;28;20083;-73
2021/08/26 02:37:59;;;;;;;10.02;8.35;;;;;;;20.48;49.82;95117.13;5031683;28;20044;-74
2021/08/26 02:40:25;;;;;;;10.32;8.45;;;;;;;20.57;49.93;95123.00;5031598;28;20666;-74
2021/08/26 02:42:50;;;;;;;8.82;7.95;;;;;;;20.54;49.53;95104.06;5033755;28;20079;-74
2021/08/26 02:45:15;;;;;;;8.90;8.00;;;;;;;20.64;49.36;95103.41;5031068;28;20038;-74
2021/08/26 02:47:41;;;;;;;10.45;8.25;;;;;;;20.71;49.18;95109.66;5031315;28;20038;-74
2021/08/26 02:50:07;;;;;;;9.48;7.57;;;;;;;20.66;48.82;95096.47;5031614;28;20062;-72
2021/08/26 02:52:32;;;;;;;12.35;7.65;;;;;;;20.70;48.44;95097.31;5031644;28;20485;-74
2021/08/26 02:54:57;;;;;;;8.13;7.32;;;;;;;20.70;48.36;95091.13;5033611;28;20045;-74
2021/08/26 02:57:23;;;;;;;7.88;7.07;;;;;;;20.73;47.91;95091.16;5030955;28;20036;-73
2021/08/26 02:59:48;;;;;;;8.85;7.95;;;;;;;20.80;47.69;95095.09;5029859;28;20042;-74
2021/08/26 03:02:13;;;;;;;10.07;7.43;;;;;;;20.70;47.57;95086.50;5045970;28;20042;-74
2021/08/26 03:04:38;;;;;;;8.10;7.22;;;;;;;20.80;47.51;95095.09;5045836;28;20052;-73
2021/08/26 03:07:04;;;;;;;8.45;7.63;;;;;;;20.71;47.06;95082.63;5033141;28;20070;-74
2021/08/26 03:09:32;;;;;;;8.57;7.65;;;;;;;20.83;46.85;95088.94;5046799;28;20034;-73
2021/08/26 03:11:57;;;;;;;13.80;7.65;;;;;;;20.75;46.59;95085.38;5046653;28;20042;-74
2021/08/26 03:14:23;;;;;;;9.05;8.02;;;;;;;20.24;47.22;95075.13;5045802;28;20052;-73
2021/08/26 03:16:48;;;;;;;9.68;8.35;;;;;;;20.39;47.21;95073.38;5030783;28;20063;-74
2021/08/26 03:19:13;;;;;;;9.70;7.63;;;;;;;20.48;47.08;95068.50;5032965;28;20594;-75
2021/08/26 03:21:39;;;;;;;9.18;8.15;;;;;;;20.31;47.05;95077.13;5031016;28;20040;-74
2021/08/26 03:24:05;;;;;;;8.05;7.25;;;;;;;20.58;47.04;95077.88;5030813;28;20116;-73
2021/08/26 03:26:30;;;;;;;9.02;8.13;;;;;;;20.66;46.81;95069.44;5045468;28;20063;-73
2021/08/26 03:28:56;;;;;;;9.60;7.43;;;;;;;20.66;46.66;95063.28;5030152;28;20127;-74
2021/08/26 03:31:21;;;;;;;8.15;7.35;;;;;;;20.65;46.44;95037.41;5032691;28;20637;-74
2021/08/26 03:33:46;;;;;;;9.40;8.00;;;;;;;20.77;46.53;95058.75;5030701;28;20099;-74
2021/08/26 03:36:12;;;;;;;8.68;7.75;;;;;;;20.54;46.82;95050.03;5030230;28;20041;-73
2021/08/26 03:38:38;;;;;;;8.93;7.70;;;;;;;20.53;46.64;95032.28;5045991;28;20049;-73
2021/08/26 03:41:03;;;;;;;8.05;7.20;;;;;;;20.62;46.56;95043.53;5029287;28;20036;-73
2021/08/26 03:43:29;;;;;;;8.48;7.68;;;;;;;20.61;46.60;95031.19;5030304;28;20029;-74
2021/08/26 03:45:54;;;;;;;9.18;8.27;;;;;;;20.62;46.43;95025.41;5032138;28;20021;-74
2021/08/26 03:48:19;;;;;;;8.45;7.57;;;;;;;20.64;46.30;95031.22;5030689;28;20042;-73
2021/08/26 03:50:45;;;;;;;8.13;6.88;;;;;;;20.63;46.50;95029.69;5030764;28;20029;-74
2021/08/26 03:53:10;;;;;;;9.10;7.75;;;;;;;20.41;46.59;95023.22;5031043;28;20498;-74
2021/08/26 03:55:35;;;;;;;7.63;6.82;;;;;;;20.41;46.81;95034.03;5030606;28;20450;-74
2021/08/26 03:58:01;;;;;;;8.45;7.65;;;;;;;20.30;47.02;95030.44;5032475;28;20517;-74
2021/08/26 04:00:26;;;;;;;8.68;7.57;;;;;;;20.34;47.09;95047.47;5030178;28;20439;-73
2021/08/26 04:02:51;;;;;;;7.85;7.05;;;;;;;20.24;47.30;95034.59;5030289;28;20041;-74
2021/08/26 04:05:17;;;;;;;10.90;8.63;;;;;;;20.09;47.25;95017.44;5030164;28;20545;-74
2021/08/26 04:07:42;;;;;;;10.32;8.02;;;;;;;20.15;47.45;95026.78;5030164;28;21759;-73
2021/08/26 04:10:08;;;;;;;9.52;8.18;;;;;;;20.21;47.59;95040.72;5032182;28;20033;-73
2021/08/26 04:12:33;;;;;;;8.23;7.15;;;;;;;20.20;47.58;95048.06;5030351;28;20037;-74
2021/08/26 04:14:59;;;;;;;7.85;7.05;;;;;;;20.17;47.55;95043.41;5029662;28;20479;-74
2021/08/26 04:17:24;;;;;;;8.48;7.70;;;;;;;19.98;47.94;95035.44;5029856;28;20183;-72
2021/08/26 04:19:50;;;;;;;8.65;7.70;;;;;;;19.99;47.92;95026.19;5030150;28;20041;-75
2021/08/26 04:22:15;;;;;;;12.45;7.65;;;;;;;19.82;47.93;95035.63;5031822;28;20026;-74
2021/08/26 04:24:40;;;;;;;10.05;8.50;;;;;;;18.73;50.68;95035.41;5029643;28;20043;-74
2021/08/26 04:27:06;;;;;;;8.65;7.78;;;;;;;18.12;52.74;95048.50;5029701;28;20037;-73
2021/08/26 04:29:31;;;;;;;9.20;7.78;;;;;;;17.70;54.07;95058.31;5044689;28;20507;-74
2021/08/26 04:31:57;;;;;;;9.48;7.68;;;;;;;18.95;50.95;95045.44;5029644;28;20483;-74
2021/08/26 04:34:22;;;;;;;10.63;8.57;;;;;;;18.91;50.88;95041.91;5031613;28;20495;-74
2021/08/26 04:36:47;;;;;;;11.20;8.10;;;;;;;18.97;50.89;95037.78;5029540;28;20037;-76
2021/08/26 04:39:13;;;;;;;9.95;8.48;;;;;;;19.17;50.46;95033.88;5029137;28;20033;-76
2021/08/26 04:41:38;;;;;;;10.35;8.00;;;;;;;19.31;50.00;95010.97;5029656;28;20049;-74
2021/08/26 04:44:05;;;;;;;10.35;8.07;;;;;;;19.61;49.78;95027.25;5028973;28;20087;-73
2021/08/26 04:46:30;;;;;;;10.60;7.70;;;;;;;19.67;49.50;95023.84;5029166;28;20032;-74
2021/08/26 04:48:56;;;;;;;8.98;8.07;;;;;;;19.39;49.78;95001.81;5031700;28;20391;-73
2021/08/26 04:51:21;;;;;;;9.23;8.25;;;;;;;19.37;50.28;95015.69;5029653;28;20033;-72
2021/08/26 04:53:46;;;;;;;13.23;8.52;;;;;;;19.68;49.35;95020.00;5029653;28;20071;-74
2021/08/26 04:56:12;;;;;;;10.63;8.20;;;;;;;19.83;49.10;95020.97;5028354;28;20141;-74
2021/08/26 04:58:39;;;;;;;12.70;8.32;;;;;;;19.98;48.59;95017.31;5029299;28;20017;-74
2021/08/26 05:01:04;;;;;;;11.10;8.75;;;;;;;19.87;48.42;94996.75;5030947;28;20029;-77
2021/08/26 05:03:30;;;;;;;11.98;8.82;;;;;;;19.56;48.82;95006.72;5025979;28;20044;-73
2021/08/26 05:05:55;;;;;;;10.02;8.65;;;;;;;20.15;48.22;95029.47;5043448;28;20065;-73
2021/08/26 05:08:20;;;;;;;10.98;8.32;;;;;;;20.26;47.68;94997.19;5044076;28;20044;-73
2021/08/26 05:10:46;;;;;;;9.15;7.70;;;;;;;20.25;47.65;95028.81;5042184;28;20045;-71
2021/08/26 05:13:11;;;;;;;11.00;7.82;;;;;;;19.72;48.37;95001.94;5030955;28;20025;-75
2021/08/26 05:15:37;;;;;;;10.57;8.75;;;;;;;20.17;47.53;95010.22;5043444;28;20610;-76
2021/08/26 05:18:03;;;;;;;14.27;8.52;;;;;;;20.42;47.17;94992.38;5028007;28;20044;-72
2021/08/26 05:20:29;;;;;;;15.10;7.72;;;;;;;20.82;46.82;95015.16;5027321;28;20045;-74
2021/08/26 05:22:57;;;;;;;15.10;8.60;;;;;;;20.60;46.37;94989.88;5026949;28;20037;-70
2021/08/26 05:25:22;;;;;;;11.77;7.88;;;;;;;20.93;46.44;95012.56;5030697;28;20021;-81
2021/08/26 05:27:48;;;;;;;9.93;8.00;;;;;;;20.38;47.37;95009.69;5028305;28;20487;-75
2021/08/26 05:30:14;;;;;;;11.18;7.40;;;;;;;19.87;48.36;95008.31;5027549;28;20034;-73
2021/08/26 05:32:39;;;;;;;15.88;8.52;;;;;;;19.85;48.50;94990.91;5041660;28;20096;-68
2021/08/26 05:35:04;;;;;;;11.48;8.25;;;;;;;20.55;47.57;95033.44;5028259;28;20033;-72
2021/08/26 05:37:30;;;;;;;9.63;7.13;;;;;;;20.70;47.06;95015.44;5028294;28;20539;-75
2021/08/26 05:39:55;;;;;;;10.82;7.10;;;;;;;20.62;47.29;95043.53;5031557;28;20034;-81
2021/08/26 05:42:20;;;;;;;9.18;7.25;;;;;;;20.60;47.70;95049.31;5030171;28;20033;-85
2021/08/26 05:44:46;;;;;;;9.40;7.35;;;;;;;20.79;47.28;95028.66;5029575;28;20527;-75
2021/08/26 05:47:11;;;;;;;10.80;7.55;;;;;;;21.28;46.28;95036.41;5028206;28;20100;-74
2021/08/26 05:49:37;;;;;;;9.73;6.88;;;;;;;21.65;45.66;95013.88;5045565;28;20052;-74
2021/08/26 05:52:02;;;;;;;8.52;7.28;;;;;;;21.66;45.17;94988.41;5033381;28;20029;-72
2021/08/26 05:54:28;;;;;;;11.57;7.43;;;;;;;21.77;45.43;95056.91;5028091;28;20033;-73
2021/08/26 05:56:56;;;;;;;10.05;7.32;;;;;;;21.17;46.03;95027.44;5028526;28;20041;-75
2021/08/26 05:59:21;;;;;;;9.50;7.45;;;;;;;21.67;45.88;95036.72;5043795;28;20061;-75
2021/08/26 06:01:46;;;;;;;9.73;7.05;;;;;;;21.76;45.16;94999.28;5037919;28;20491;-71
2021/08/26 06:04:12;;;;;;;9.63;7.47;;;;;;;21.53;45.52;95012.28;5030482;28;20378;-70
2021/08/26 06:06:37;;;;;;;8.45;7.20;;;;;;;21.11;46.75;95032.44;5028205;28;20618;-73
2021/08/26 06:09:02;;;;;;;12.10;7.20;;;;;;;21.55;45.63;95015.41;5031919;28;20051;-71
2021/08/26 06:11:28;;;;;;;8.27;7.47;;;;;;;20.81;47.73;95021.72;5031989;28;20128;-68
2021/08/26 06:13:53;;;;;;;8.27;6.93;;;;;;;20.48;48.99;95036.06;5032001;28;20030;-67
2021/08/26 06:16:18;;;;;;;8.10;6.88;;;;;;;20.32;49.33;95032.75;5032825;28;20459;-70
2021/08/26 06:18:44;;;;;;;8.25;7.45;;;;;;;20.00;50.44;95035.84;5031661;28;20046;-70
2021/08/26 06:21:10;;;;;;;9.10;7.35;;;;;;;19.42;52.37;95042.34;5031921;28;20030;-72
2021/08/26 06:23:36;;;;;;;8.05;7.25;;;;;;;20.95;48.18;95037.31;5032066;28;20071;-72
2021/08/26 06:26:02;;;;;;;12.43;7.25;;;;;;;20.94;49.15;95022.25;5026202;28;20053;-73
2021/08/26 06:28:27;;;;;;;8.15;6.97;;;;;;;21.94;46.13;95022.94;5029726;28;20032;-70
2021/08/26 06:30:52;;;;;;;18.67;7.90;;;;;;;22.39;45.26;95023.56;5048243;28;20109;-68
2021/08/26 06:33:18;;;;;;;10.85;7.30;;;;;;;21.19;46.94;95034.06;5031335;28;20128;-74
2021/08/26 06:35:43;;;;;;;8.25;6.85;;;;;;;20.85;48.29;95027.19;5017599;28;20069;-74
2021/08/26 06:38:09;;;;;;;7.22;6.47;;;;;;;21.25;47.46;95046.06;5033350;28;20050;-70
2021/08/26 06:40:34;;;;;;;9.40;7.53;;;;;;;19.81;50.78;95015.19;5024394;28;20107;-76
2021/08/26 06:43:00;;;;;;;7.88;7.07;;;;;;;20.18;50.08;95023.34;5019918;28;20399;-77
2021/08/26 06:45:25;;;;;;;7.60;6.90;;;;;;;20.53;49.40;95043.84;5020630;28;20091;-68
2021/08/26 06:47:51;;;;;;;12.05;7.05;;;;;;;20.48;49.95;95036.06;5028076;28;20034;-69
2021/08/26 06:50:16;;;;;;;8.00;6.95;;;;;;;21.41;47.75;95032.31;5031401;28;20038;-69
2021/08/26 06:52:41;;;;;;;7.93;7.13;;;;;;;21.94;45.85;95036.50;5031229;28;20091;-66
2021/08/26 06:55:07;;;;;;;9.63;7.60;;;;;;;21.63;46.34;95029.75;5032922;28;20479;-71
2021/08/26 06:57:33;;;;;;;10.07;6.88;;;;;;;21.37;47.66;95052.38;5028495;28;20049;-71
2021/08/26 06:59:58;;;;;;;8.23;7.25;;;;;;;20.97;48.58;95041.19;5030457;28;20041;-70
2021/08/26 07:02:24;;;;;;;8.10;7.30;;;;;;;20.10;50.21;95021.69;5030509;28;20045;-71
2021/08/26 07:04:49;;;;;;;9.60;7.03;;;;;;;20.40;49.59;95056.00;5030903;28;20037;-67
2021/08/26 07:07:15;;;;;;;8.23;7.32;;;;;;;19.16;52.52;95045.78;5032699;28;20498;-68
2021/08/26 07:09:40;;;;;;;8.13;6.68;;;;;;;19.46;52.39;95020.84;5031352;28;20128;-68
2021/08/26 07:12:06;;;;;;;7.55;6.95;;;;;;;20.12;50.43;95029.47;5029154;28;20091;-68
2021/08/26 07:14:31;;;;;;;8.55;7.45;;;;;;;20.15;50.19;95012.50;5029843;28;20049;-67
2021/08/26 07:16:57;;;;;;;9.50;7.43;;;;;;;19.73;51.27;95035.13;5030024;28;20099;-72
2021/08/26 07:19:22;;;;;;;8.23;7.45;;;;;;;20.58;48.95;95004.91;5031760;28;20034;-72
2021/08/26 07:21:48;;;;;;;8.07;7.30;;;;;;;20.15;50.90;95032.19;5031011;28;20073;-73
2021/08/26 07:24:14;;;;;;;7.70;6.90;;;;;;;20.16;50.07;95030.25;5045885;28;20037;-72
2021/08/26 07:26:40;;;;;;;8.85;7.95;;;;;;;19.77;51.08;95018.97;5029313;28;20046;-72
2021/08/26 07:29:05;;;;;;;8.32;7.50;;;;;;;20.48;50.13;95020.63;5030639;28;20034;-71
2021/08/26 07:31:30;;;;;;;9.35;7.57;;;;;;;20.58;49.15;95018.44;5028635;28;20117;-72
2021/08/26 07:33:56;;;;;;;11.40;9.18;;;;;;;19.92;50.41;95024.19;5047465;28;20180;-72
2021/08/26 07:36:21;;;;;;;10.65;9.55;;;;;;;20.55;48.24;95021.84;5045271;28;20041;-71
2021/08/26 07:38:46;;;;;;;11.55;9.68;;;;;;;19.93;49.20;95014.16;5030486;28;20037;-71
2021/08/26 07:41:12;;;;;;;11.75;9.88;;;;;;;20.29;48.93;95011.91;5029099;28;20033;-74
2021/08/26 07:43:37;;;;;;;9.50;8.43;;;;;;;19.95;49.43;94998.38;5028058;28;20028;-71
2021/08/26 07:46:04;;;;;;;11.13;9.95;;;;;;;20.56;48.40;95023.41;5031490;28;20390;-73
2021/08/26 07:48:29;;;;;;;11.88;10.45;;;;;;;20.79;47.20;95018.63;5029945;28;20499;-70
2021/08/26 07:50:58;;;;;;;12.98;10.80;;;;;;;20.47;48.18;95018.28;5030363;28;20112;-71
2021/08/26 07:53:24;;;;;;;13.43;9.77;;;;;;;19.64;49.78;95018.41;5030163;28;20041;-71
2021/08/26 07:55:49;;;;;;;11.88;10.55;;;;;;;20.29;48.71;95017.31;5029758;28;20021;-75
2021/08/26 07:58:15;;;;;;;13.13;11.25;;;;;;;20.13;49.06;95015.56;5032377;28;20022;-71
2021/08/26 08:00:40;;;;;;;15.68;11.73;;;;;;;20.28;48.80;95011.13;5029601;28;20133;-69
2021/08/26 08:03:05;;;;;;;15.52;11.95;;;;;;;20.46;48.20;95016.72;5029636;28;20127;-69
2021/08/26 08:05:31;;;;;;;19.15;12.77;;;;;;;20.77;47.09;95018.22;5028720;28;20084;-70
2021/08/26 08:07:57;;;;;;;14.57;12.80;;;;;;;21.25;46.89;95008.19;5030591;28;20057;-69
2021/08/26 08:10:23;;;;;;;13.90;12.40;;;;;;;21.36;46.23;95004.81;5032472;28;20026;-69
2021/08/26 08:12:49;;;;;;;18.08;13.25;;;;;;;20.10;49.25;95027.09;5030794;28;20040;-69
2021/08/26 08:15:14;;;;;;;15.65;13.68;;;;;;;20.68;48.32;95017.75;5029688;28;20033;-69
2021/08/26 08:17:40;;;;;;;17.20;14.55;;;;;;;20.72;48.64;95015.84;5029443;28;20056;-70
2021/08/26 08:20:07;;;;;;;21.90;15.02;;;;;;;21.37;46.92;95025.31;5044880;28;20109;-69
2021/08/26 08:22:32;;;;;;;25.20;15.32;;;;;;;20.15;49.74;95032.19;5029439;28;20037;-68
2021/08/26 08:24:58;;;;;;;17.42;15.07;;;;;;;20.34;49.56;95035.88;5030972;28;20029;-69
2021/08/26 08:27:23;;;;;;;15.73;14.13;;;;;;;20.11;50.20;95036.75;5029572;28;20043;-69
2021/08/26 08:29:48;;;;;;;22.48;14.75;;;;;;;19.69;52.18;95036.97;5028830;28;20041;-70
2021/08/26 08:32:14;;;;;;;18.83;14.13;;;;;;;19.53;52.38;95034.41;5028003;28;20506;-69
2021/08/26 08:34:40;;;;;;;19.90;14.70;;;;;;;19.52;53.03;95029.38;5029009;28;20037;-69
2021/08/26 08:37:05;;;;;;;15.35;13.75;;;;;;;20.27;50.97;95039.28;5031650;28;20047;-70
2021/08/26 08:39:31;;;;;;;18.17;14.27;;;;;;;19.64;53.01;95013.00;5029354;28;20048;-70
2021/08/26 08:41:57;;;;;;;19.13;14.70;;;;;;;19.94;52.10;95030.00;5029062;28;20042;-70
2021/08/26 08:44:22;;;;;;;16.08;14.38;;;;;;;20.68;51.24;95029.34;5029364;28;20053;-68
2021/08/26 08:46:48;;;;;;;18.33;14.63;;;;;;;19.15;54.72;95043.47;5027194;28;20046;-69
2021/08/26 08:49:18;;;;;;;16.67;14.93;;;;;;;20.03;53.06;95023.56;5030962;28;20026;-70
2021/08/26 08:51:43;;;;;;;16.83;15.00;;;;;;;20.55;51.91;95049.66;5044332;28;20391;-69
2021/08/26 08:54:09;;;;;;;17.27;13.75;;;;;;;19.63;53.07;95052.69;5028972;28;20037;-71
2021/08/26 08:56:34;;;;;;;15.52;13.95;;;;;;;19.84;53.12;95046.06;5028909;28;20057;-71
2021/08/26 08:59:00;;;;;;;16.02;14.35;;;;;;;19.71;52.61;95032.78;5028840;28;20068;-70
2021/08/26 09:01:26;;;;;;;16.70;13.95;;;;;;;19.95;52.36;95049.66;5027648;28;20582;-71
2021/08/26 09:03:52;;;;;;;17.85;14.00;;;;;;;19.78;52.51;95044.81;5030699;28;20391;-72
2021/08/26 09:06:18;;;;;;;16.25;14.10;;;;;;;20.56;51.56;95047.72;5028267;28;20029;-72
2021/08/26 09:09:01;;;;;;;18.65;16.73;;;;;;;19.68;53.02;95046.22;5028341;28;20606;-72
2021/08/26 09:11:27;;;;;;;21.73;17.90;;;;;;;20.00;52.17;95011.53;5044077;28;20041;-71
2021/08/26 09:13:53;;;;;;;21.42;19.25;;;;;;;19.39;53.92;95026.09;5028940;28;20107;-72
2021/08/26 09:16:34;;;;;;;25.13;20.58;;;;;;;19.85;53.02;95009.81;5028410;28;20430;-72
2021/08/26 09:19:16;;;;;;;24.33;19.23;;;;;;;20.37;51.12;95019.72;5044061;28;20124;-73
2021/08/26 09:21:41;;;;;;;22.90;20.33;;;;;;;20.42;51.46;94994.28;5043731;28;20061;-71
2021/08/26 09:24:07;;;;;;;25.17;20.25;;;;;;;19.85;52.26;95024.09;5028002;28;20091;-73
2021/08/26 09:26:32;;;;;;;23.90;19.38;;;;;;;18.93;54.34;95010.75;5043716;28;20033;-73
2021/08/26 09:29:03;;;;;;;22.08;18.88;;;;;;;18.98;54.68;95036.63;5044242;28;20032;-72
2021/08/26 09:31:30;;;;;;;23.00;19.65;;;;;;;19.99;51.35;95032.38;5028324;28;20033;-71
2021/08/26 09:34:18;;;;;;;25.15;19.25;;;;;;;19.51;53.36;95028.63;5030360;28;20371;-70
2021/08/26 09:36:46;;;;;;;25.27;19.00;;;;;;;19.22;54.04;95038.19;5028232;28;20043;-71
2021/08/26 09:39:13;;;;;;;39.90;28.45;;;;;;;19.78;57.47;95015.91;5027186;28;20129;-71
2021/08/26 09:41:43;;;;;;;49.88;32.35;;;;;;;19.49;57.20;95033.56;5028259;28;20643;-70
2021/08/26 09:44:13;;;;;;;43.53;28.30;;;;;;;18.33;60.76;95042.00;5043382;28;20513;-70
2021/08/26 09:46:40;;;;;;;38.90;25.83;;;;;;;18.34;60.90;95038.16;5027517;28;20503;-70
2021/08/26 09:49:08;;;;;;;31.00;23.25;;;;;;;17.89;60.72;95034.94;5030251;28;20120;-70
2021/08/26 09:51:34;;;;;;;33.60;23.35;;;;;;;17.62;62.07;95042.03;5028238;28;20034;-70
2021/08/26 09:54:00;;;;;;;34.95;25.00;;;;;;;17.67;62.06;95012.19;5027170;28;20107;-68
2021/08/26 09:56:47;;;;;;;28.02;21.10;;;;;;;17.83;61.61;95040.97;5043130;28;20449;-70
2021/08/26 09:59:12;;;;;;;30.80;21.58;;;;;;;18.87;59.18;95041.84;5027831;28;20493;-70
2021/08/26 10:01:38;;;;;;;23.65;19.23;;;;;;;18.32;58.78;95016.16;5027612;28;20029;-70
2021/08/26 10:04:25;;;;;;;25.30;20.98;;;;;;;19.16;57.49;95018.84;5030102;28;20022;-69
2021/08/26 10:06:51;;;;;;;22.52;20.00;;;;;;;18.08;60.43;94993.81;5028500;28;20038;-70
2021/08/26 10:09:16;;;;;;;28.13;20.48;;;;;;;19.36;57.12;95016.84;5028469;28;20117;-69
2021/08/26 10:11:43;;;;;;;24.40;21.33;;;;;;;18.91;57.92;95025.75;5043448;28;20076;-69
2021/08/26 10:14:09;;;;;;;28.73;21.02;;;;;;;18.99;58.18;95010.44;5043134;28;20052;-69
2021/08/26 10:16:37;;;;;;;25.30;19.63;;;;;;;19.56;56.46;95009.41;5025883;28;20025;-69
2021/08/26 10:19:04;;;;;;;32.03;21.33;;;;;;;19.27;57.22;95024.38;5029930;28;20506;-69
2021/08/26 10:21:30;;;;;;;22.45;18.88;;;;;;;19.14;57.72;95029.22;5028105;28;20386;-70
2021/08/26 10:23:55;;;;;;;20.95;18.10;;;;;;;19.25;56.09;95012.44;5027985;28;20028;-70
2021/08/26 10:26:21;;;;;;;18.98;17.05;;;;;;;18.86;56.79;94999.88;5026397;28;20045;-70
2021/08/26 10:28:47;;;;;;;23.88;17.23;;;;;;;18.81;57.91;95008.25;5028259;28;20140;-69
2021/08/26 10:31:50;;;;;;;27.20;18.73;;;;;;;18.76;58.75;95026.63;5044672;28;20049;-69
2021/08/26 10:34:23;;;;;;;20.45;17.90;;;;;;;19.76;56.35;95012.81;5015365;28;20038;-69
2021/08/26 10:36:54;;;;;;;19.85;16.65;;;;;;;19.29;56.38;95024.03;5027857;28;20037;-70
2021/08/26 10:39:29;;;;;;;23.65;17.55;;;;;;;18.74;57.14;95023.53;5027911;28;20099;-70
2021/08/26 10:41:57;;;;;;;20.98;16.48;;;;;;;18.27;58.72;95019.97;5043032;28;20049;-69
2021/08/26 10:44:42;;;;;;;18.48;15.60;;;;;;;17.85;59.26;95019.84;5026005;28;20075;-69
2021/08/26 10:47:08;;;;;;;17.50;14.90;;;;;;;18.30;58.25;95005.00;5027088;28;20049;-69
2021/08/26 10:50:11;;;;;;;17.65;15.80;;;;;;;19.30;56.72;95007.50;5027625;28;20049;-68
2021/08/26 10:52:57;;;;;;;20.05;16.08;;;;;;;19.00;57.38;95009.34;5027329;28;20022;-71
2021/08/26 10:55:28;;;;;;;18.60;15.93;;;;;;;18.74;57.66;95015.44;5031462;28;20021;-69
2021/08/26 10:57:53;;;;;;;18.85;15.07;;;;;;;18.00;59.32;95008.25;5046621;28;20079;-69
2021/08/26 11:00:41;;;;;;;19.92;14.98;;;;;;;18.62;57.22;95021.72;5030521;28;20437;-70
2021/08/26 11:03:07;;;;;;;20.88;14.75;;;;;;;17.82;60.52;95013.28;5028028;28;20128;-69
2021/08/26 11:05:34;;;;;;;16.75;14.68;;;;;;;18.15;60.52;95009.31;5030703;28;20121;-69
2021/08/26 11:08:20;;;;;;;24.05;16.73;;;;;;;18.42;60.25;95015.59;5030838;28;20037;-69
2021/08/26 11:10:46;;;;;;;18.40;15.45;;;;;;;18.59;58.43;94996.31;5030645;28;20029;-69
2021/08/26 11:13:29;;;;;;;18.70;15.13;;;;;;;18.97;56.60;95010.81;5032861;28;20360;-69
2021/08/26 11:15:55;;;;;;;18.30;15.52;;;;;;;18.94;57.66;95006.16;5030202;28;20037;-70
2021/08/26 11:18:28;;;;;;;19.48;13.63;;;;;;;18.41;57.01;95006.75;5031164;28;20038;-70
2021/08/26 11:20:54;;;;;;;15.50;13.50;;;;;;;19.24;55.40;95008.91;5031334;28;20080;-70
2021/08/26 11:23:44;;;;;;;14.65;13.15;;;;;;;19.67;54.17;95001.50;5031410;28;20062;-69
2021/08/26 11:26:41;;;;;;;18.13;12.77;;;;;;;18.79;56.53;95015.16;5046482;28;20041;-71
2021/08/26 11:29:21;;;;;;;13.38;11.88;;;;;;;19.22;55.01;95014.69;5030705;28;20046;-69
2021/08/26 11:31:57;;;;;;;13.80;12.38;;;;;;;19.58;54.07;95011.75;5030474;28;20037;-69